sensor_id;sensor_type;location;lat;lon;timestamp;temperature;humidity
7844;DHT22;3967;48.702;9.326;2024-01-27T00:00:58;5.20;97.40
7844;DHT22;3967;48.702;9.326;2024-01-27T00:03:24;5.20;97.30
7844;DHT22;3967;48.702;9.326;2024-01-27T00:05:51;5.20;97.30
7844;DHT22;3967;48.702;9.326;2024-01-27T00:08:19;5.10;97.20
7844;DHT22;3967;48.702;9.326;2024-01-27T00:10:46;5.20;97.00
7844;DHT22;3967;48.702;9.326;2024-01-27T00:13:13;5.10;97.00
7844;DHT22;3967;48.702;9.326;2024-01-27T00:15:40;5.10;97.10
7844;DHT22;3967;48.702;9.326;2024-01-27T00:18:06;5.10;97.00
7844;DHT22;3967;48.702;9.326;2024-01-27T00:20:33;5.10;97.00
7844;DHT22;3967;48.702;9.326;2024-01-27T00:23:00;5.10;97.10
7844;DHT22;3967;48.702;9.326;2024-01-27T00:25:27;5.10;97.20
7844;DHT22;3967;48.702;9.326;2024-01-27T00:27:54;5.00;97.10
7844;DHT22;3967;48.702;9.326;2024-01-27T00:30:20;5.00;97.10
7844;DHT22;3967;48.702;9.326;2024-01-27T00:32:47;5.00;97.50
7844;DHT22;3967;48.702;9.326;2024-01-27T00:35:14;5.00;97.30
7844;DHT22;3967;48.702;9.326;2024-01-27T00:37:42;5.00;97.30
7844;DHT22;3967;48.702;9.326;2024-01-27T00:40:10;4.90;97.30
7844;DHT22;3967;48.702;9.326;2024-01-27T00:42:37;4.90;97.60
7844;DHT22;3967;48.702;9.326;2024-01-27T00:45:05;4.80;97.80
7844;DHT22;3967;48.702;9.326;2024-01-27T00:47:32;4.70;97.80
7844;DHT22;3967;48.702;9.326;2024-01-27T00:49:59;4.70;98.30
7844;DHT22;3967;48.702;9.326;2024-01-27T00:52:26;4.70;98.60
7844;DHT22;3967;48.702;9.326;2024-01-27T00:54:53;4.60;98.50
7844;DHT22;3967;48.702;9.326;2024-01-27T00:57:19;4.50;98.40
7844;DHT22;3967;48.702;9.326;2024-01-27T00:59:46;4.40;98.30
7844;DHT22;3967;48.702;9.326;2024-01-27T01:02:13;4.50;98.20
7844;DHT22;3967;48.702;9.326;2024-01-27T01:04:40;4.50;98.10
7844;DHT22;3967;48.702;9.326;2024-01-27T01:07:08;4.40;98.10
7844;DHT22;3967;48.702;9.326;2024-01-27T01:09:35;4.40;98.10
7844;DHT22;3967;48.702;9.326;2024-01-27T01:12:02;4.40;98.20
7844;DHT22;3967;48.702;9.326;2024-01-27T01:14:29;4.30;98.30
7844;DHT22;3967;48.702;9.326;2024-01-27T01:16:56;4.30;98.50
7844;DHT22;3967;48.702;9.326;2024-01-27T01:19:23;4.40;98.80
7844;DHT22;3967;48.702;9.326;2024-01-27T01:21:50;4.30;98.90
7844;DHT22;3967;48.702;9.326;2024-01-27T01:24:16;4.30;99.00
7844;DHT22;3967;48.702;9.326;2024-01-27T01:26:43;4.30;99.20
7844;DHT22;3967;48.702;9.326;2024-01-27T01:29:10;4.30;99.30
7844;DHT22;3967;48.702;9.326;2024-01-27T01:31:37;4.30;99.30
7844;DHT22;3967;48.702;9.326;2024-01-27T01:34:04;4.30;99.40
7844;DHT22;3967;48.702;9.326;2024-01-27T01:36:30;4.20;99.30
7844;DHT22;3967;48.702;9.326;2024-01-27T01:38:57;4.20;99.60
7844;DHT22;3967;48.702;9.326;2024-01-27T01:41:24;4.20;99.80
7844;DHT22;3967;48.702;9.326;2024-01-27T01:43:51;4.10;99.60
7844;DHT22;3967;48.702;9.326;2024-01-27T01:46:18;4.20;99.70
7844;DHT22;3967;48.702;9.326;2024-01-27T01:48:45;4.20;99.90
7844;DHT22;3967;48.702;9.326;2024-01-27T01:51:12;4.20;99.90
7844;DHT22;3967;48.702;9.326;2024-01-27T01:53:39;4.10;99.90
7844;DHT22;3967;48.702;9.326;2024-01-27T01:56:06;4.10;99.90
7844;DHT22;3967;48.702;9.326;2024-01-27T01:58:35;4.10;99.90
7844;DHT22;3967;48.702;9.326;2024-01-27T02:01:01;4.10;99.90
7844;DHT22;3967;48.702;9.326;2024-01-27T02:03:28;4.10;99.90
7844;DHT22;3967;48.702;9.326;2024-01-27T02:05:56;4.00;99.90
7844;DHT22;3967;48.702;9.326;2024-01-27T02:08:23;4.00;99.90
7844;DHT22;3967;48.702;9.326;2024-01-27T02:10:49;4.00;99.90
7844;DHT22;3967;48.702;9.326;2024-01-27T02:13:21;4.00;99.90
7844;DHT22;3967;48.702;9.326;2024-01-27T02:15:49;3.90;99.90
7844;DHT22;3967;48.702;9.326;2024-01-27T02:18:16;3.90;99.90
7844;DHT22;3967;48.702;9.326;2024-01-27T02:20:44;3.90;99.90
7844;DHT22;3967;48.702;9.326;2024-01-27T02:23:11;3.90;99.90
7844;DHT22;3967;48.702;9.326;2024-01-27T02:25:37;3.90;99.90
7844;DHT22;3967;48.702;9.326;2024-01-27T02:28:05;3.90;99.90
7844;DHT22;3967;48.702;9.326;2024-01-27T02:30:31;3.80;99.90
7844;DHT22;3967;48.702;9.326;2024-01-27T02:32:58;3.70;99.90
7844;DHT22;3967;48.702;9.326;2024-01-27T02:35:25;3.70;99.90
7844;DHT22;3967;48.702;9.326;2024-01-27T02:37:52;3.70;99.90
7844;DHT22;3967;48.702;9.326;2024-01-27T02:40:19;3.70;99.90
7844;DHT22;3967;48.702;9.326;2024-01-27T02:42:46;3.60;99.90
7844;DHT22;3967;48.702;9.326;2024-01-27T02:45:13;3.40;99.90
7844;DHT22;3967;48.702;9.326;2024-01-27T02:47:40;3.30;99.90
7844;DHT22;3967;48.702;9.326;2024-01-27T02:50:07;3.40;99.90
7844;DHT22;3967;48.702;9.326;2024-01-27T02:52:34;3.30;99.90
7844;DHT22;3967;48.702;9.326;2024-01-27T02:55:01;3.30;99.90
7844;DHT22;3967;48.702;9.326;2024-01-27T02:57:28;3.40;99.90
7844;DHT22;3967;48.702;9.326;2024-01-27T02:59:54;3.30;99.90
7844;DHT22;3967;48.702;9.326;2024-01-27T03:02:21;3.20;99.90
7844;DHT22;3967;48.702;9.326;2024-01-27T03:04:48;3.20;99.90
7844;DHT22;3967;48.702;9.326;2024-01-27T03:07:15;3.20;99.90
7844;DHT22;3967;48.702;9.326;2024-01-27T03:09:41;3.20;99.90
7844;DHT22;3967;48.702;9.326;2024-01-27T03:12:08;3.00;99.90
7844;DHT22;3967;48.702;9.326;2024-01-27T03:14:35;3.00;99.90
7844;DHT22;3967;48.702;9.326;2024-01-27T03:17:02;3.00;99.90
7844;DHT22;3967;48.702;9.326;2024-01-27T03:19:29;2.90;99.90
7844;DHT22;3967;48.702;9.326;2024-01-27T03:21:56;2.90;99.90
7844;DHT22;3967;48.702;9.326;2024-01-27T03:24:22;3.00;99.90
7844;DHT22;3967;48.702;9.326;2024-01-27T03:26:49;3.10;99.90
7844;DHT22;3967;48.702;9.326;2024-01-27T03:29:16;3.10;99.90
7844;DHT22;3967;48.702;9.326;2024-01-27T03:31:43;3.00;99.90
7844;DHT22;3967;48.702;9.326;2024-01-27T03:34:10;3.00;99.90
7844;DHT22;3967;48.702;9.326;2024-01-27T03:36:37;2.90;99.90
7844;DHT22;3967;48.702;9.326;2024-01-27T03:39:03;2.90;99.90
7844;DHT22;3967;48.702;9.326;2024-01-27T03:41:30;2.90;99.90
7844;DHT22;3967;48.702;9.326;2024-01-27T03:43:57;2.90;99.90
7844;DHT22;3967;48.702;9.326;2024-01-27T03:46:24;2.80;99.90
7844;DHT22;3967;48.702;9.326;2024-01-27T03:48:51;2.80;99.90
7844;DHT22;3967;48.702;9.326;2024-01-27T03:51:18;2.90;99.90
7844;DHT22;3967;48.702;9.326;2024-01-27T03:53:45;2.90;99.90
7844;DHT22;3967;48.702;9.326;2024-01-27T03:56:12;2.90;99.90
7844;DHT22;3967;48.702;9.326;2024-01-27T03:58:39;2.80;99.90
7844;DHT22;3967;48.702;9.326;2024-01-27T04:01:06;2.80;99.90
7844;DHT22;3967;48.702;9.326;2024-01-27T04:03:33;2.80;99.90
7844;DHT22;3967;48.702;9.326;2024-01-27T04:06:00;2.80;99.90
7844;DHT22;3967;48.702;9.326;2024-01-27T04:08:32;2.80;99.90
7844;DHT22;3967;48.702;9.326;2024-01-27T04:10:58;2.70;99.90
7844;DHT22;3967;48.702;9.326;2024-01-27T04:13:25;2.70;99.90
7844;DHT22;3967;48.702;9.326;2024-01-27T04:15:52;2.70;99.90
7844;DHT22;3967;48.702;9.326;2024-01-27T04:18:20;2.60;99.90
7844;DHT22;3967;48.702;9.326;2024-01-27T04:20:47;2.60;99.90
7844;DHT22;3967;48.702;9.326;2024-01-27T04:23:15;2.50;99.90
7844;DHT22;3967;48.702;9.326;2024-01-27T04:25:43;2.50;99.90
7844;DHT22;3967;48.702;9.326;2024-01-27T04:28:10;2.50;99.90
7844;DHT22;3967;48.702;9.326;2024-01-27T04:30:39;2.50;99.90
7844;DHT22;3967;48.702;9.326;2024-01-27T04:33:06;2.50;99.90
7844;DHT22;3967;48.702;9.326;2024-01-27T04:35:34;2.50;99.90
7844;DHT22;3967;48.702;9.326;2024-01-27T04:38:01;2.60;99.90
7844;DHT22;3967;48.702;9.326;2024-01-27T04:40:28;2.50;99.90
7844;DHT22;3967;48.702;9.326;2024-01-27T04:42:55;2.40;99.90
7844;DHT22;3967;48.702;9.326;2024-01-27T04:45:22;2.40;99.90
7844;DHT22;3967;48.702;9.326;2024-01-27T04:47:49;2.30;99.90
7844;DHT22;3967;48.702;9.326;2024-01-27T04:50:16;2.30;99.90
7844;DHT22;3967;48.702;9.326;2024-01-27T04:52:43;2.30;99.90
7844;DHT22;3967;48.702;9.326;2024-01-27T04:55:09;2.40;99.90
7844;DHT22;3967;48.702;9.326;2024-01-27T04:57:36;2.40;99.90
7844;DHT22;3967;48.702;9.326;2024-01-27T05:00:04;2.40;99.90
7844;DHT22;3967;48.702;9.326;2024-01-27T05:02:34;2.30;99.90
7844;DHT22;3967;48.702;9.326;2024-01-27T05:05:01;2.40;99.90
7844;DHT22;3967;48.702;9.326;2024-01-27T05:07:29;2.30;99.90
7844;DHT22;3967;48.702;9.326;2024-01-27T05:09:56;2.30;99.90
7844;DHT22;3967;48.702;9.326;2024-01-27T05:12:23;2.30;99.90
7844;DHT22;3967;48.702;9.326;2024-01-27T05:14:50;2.30;99.90
7844;DHT22;3967;48.702;9.326;2024-01-27T05:17:17;2.30;99.90
7844;DHT22;3967;48.702;9.326;2024-01-27T05:19:44;2.30;99.90
7844;DHT22;3967;48.702;9.326;2024-01-27T05:22:11;2.30;99.90
7844;DHT22;3967;48.702;9.326;2024-01-27T05:24:38;2.30;99.90
7844;DHT22;3967;48.702;9.326;2024-01-27T05:27:04;2.30;99.90
7844;DHT22;3967;48.702;9.326;2024-01-27T05:29:31;2.20;99.90
7844;DHT22;3967;48.702;9.326;2024-01-27T05:31:58;2.20;99.90
7844;DHT22;3967;48.702;9.326;2024-01-27T05:34:25;2.20;99.90
7844;DHT22;3967;48.702;9.326;2024-01-27T05:36:52;2.20;99.90
7844;DHT22;3967;48.702;9.326;2024-01-27T05:39:18;2.20;99.90
7844;DHT22;3967;48.702;9.326;2024-01-27T05:41:45;2.10;99.90
7844;DHT22;3967;48.702;9.326;2024-01-27T05:44:12;2.10;99.90
7844;DHT22;3967;48.702;9.326;2024-01-27T05:46:39;2.10;99.90
7844;DHT22;3967;48.702;9.326;2024-01-27T05:49:05;2.00;99.90
7844;DHT22;3967;48.702;9.326;2024-01-27T05:51:32;2.10;99.90
7844;DHT22;3967;48.702;9.326;2024-01-27T05:54:00;2.10;99.90
7844;DHT22;3967;48.702;9.326;2024-01-27T05:56:27;1.90;99.90
7844;DHT22;3967;48.702;9.326;2024-01-27T05:58:53;2.00;99.90
7844;DHT22;3967;48.702;9.326;2024-01-27T06:01:20;2.00;99.90
7844;DHT22;3967;48.702;9.326;2024-01-27T06:03:47;2.00;99.90
7844;DHT22;3967;48.702;9.326;2024-01-27T06:06:14;2.00;99.90
7844;DHT22;3967;48.702;9.326;2024-01-27T06:08:41;1.90;99.90
7844;DHT22;3967;48.702;9.326;2024-01-27T06:11:08;1.90;99.90
7844;DHT22;3967;48.702;9.326;2024-01-27T06:13:36;1.90;99.90
7844;DHT22;3967;48.702;9.326;2024-01-27T06:16:08;1.90;99.90
7844;DHT22;3967;48.702;9.326;2024-01-27T06:18:38;1.90;99.90
7844;DHT22;3967;48.702;9.326;2024-01-27T06:21:06;2.00;99.90
7844;DHT22;3967;48.702;9.326;2024-01-27T06:23:33;2.00;99.90
7844;DHT22;3967;48.702;9.326;2024-01-27T06:26:07;2.00;99.90
7844;DHT22;3967;48.702;9.326;2024-01-27T06:28:34;1.90;99.90
7844;DHT22;3967;48.702;9.326;2024-01-27T06:31:03;2.00;99.90
7844;DHT22;3967;48.702;9.326;2024-01-27T06:33:30;1.90;99.90
7844;DHT22;3967;48.702;9.326;2024-01-27T06:35:58;1.90;99.90
7844;DHT22;3967;48.702;9.326;2024-01-27T06:38:26;1.90;99.90
7844;DHT22;3967;48.702;9.326;2024-01-27T06:40:53;1.90;99.90
7844;DHT22;3967;48.702;9.326;2024-01-27T06:43:20;1.90;99.90
7844;DHT22;3967;48.702;9.326;2024-01-27T06:45:47;1.90;99.90
7844;DHT22;3967;48.702;9.326;2024-01-27T06:48:14;1.80;99.90
7844;DHT22;3967;48.702;9.326;2024-01-27T06:50:40;1.70;99.90
7844;DHT22;3967;48.702;9.326;2024-01-27T06:53:07;1.60;99.90
7844;DHT22;3967;48.702;9.326;2024-01-27T06:55:36;1.60;99.90
7844;DHT22;3967;48.702;9.326;2024-01-27T06:58:07;1.60;99.90
7844;DHT22;3967;48.702;9.326;2024-01-27T07:00:33;1.60;99.90
7844;DHT22;3967;48.702;9.326;2024-01-27T07:03:00;1.60;99.90
7844;DHT22;3967;48.702;9.326;2024-01-27T07:05:27;1.60;99.90
7844;DHT22;3967;48.702;9.326;2024-01-27T07:07:54;1.60;99.90
7844;DHT22;3967;48.702;9.326;2024-01-27T07:10:21;1.60;99.90
7844;DHT22;3967;48.702;9.326;2024-01-27T07:12:48;1.50;99.90
7844;DHT22;3967;48.702;9.326;2024-01-27T07:15:15;1.50;99.90
7844;DHT22;3967;48.702;9.326;2024-01-27T07:17:41;1.40;99.90
7844;DHT22;3967;48.702;9.326;2024-01-27T07:20:09;1.30;99.90
7844;DHT22;3967;48.702;9.326;2024-01-27T07:22:35;1.30;99.90
7844;DHT22;3967;48.702;9.326;2024-01-27T07:25:02;1.40;99.90
7844;DHT22;3967;48.702;9.326;2024-01-27T07:27:29;1.50;99.90
7844;DHT22;3967;48.702;9.326;2024-01-27T07:29:56;1.50;99.90
7844;DHT22;3967;48.702;9.326;2024-01-27T07:32:23;1.50;99.90
7844;DHT22;3967;48.702;9.326;2024-01-27T07:34:50;1.60;99.90
7844;DHT22;3967;48.702;9.326;2024-01-27T07:37:16;1.70;99.90
7844;DHT22;3967;48.702;9.326;2024-01-27T07:39:43;1.70;99.90
7844;DHT22;3967;48.702;9.326;2024-01-27T07:42:10;1.70;99.90
7844;DHT22;3967;48.702;9.326;2024-01-27T07:44:37;1.60;99.90
7844;DHT22;3967;48.702;9.326;2024-01-27T07:47:03;1.50;99.90
7844;DHT22;3967;48.702;9.326;2024-01-27T07:49:30;1.30;99.90
7844;DHT22;3967;48.702;9.326;2024-01-27T07:51:57;1.40;99.90
7844;DHT22;3967;48.702;9.326;2024-01-27T07:54:24;1.40;99.90
7844;DHT22;3967;48.702;9.326;2024-01-27T07:56:51;1.30;99.90
7844;DHT22;3967;48.702;9.326;2024-01-27T07:59:18;1.30;99.90
7844;DHT22;3967;48.702;9.326;2024-01-27T08:01:45;1.30;99.90
7844;DHT22;3967;48.702;9.326;2024-01-27T08:04:11;1.40;99.90
7844;DHT22;3967;48.702;9.326;2024-01-27T08:06:49;1.40;99.90
7844;DHT22;3967;48.702;9.326;2024-01-27T08:09:17;1.50;99.90
7844;DHT22;3967;48.702;9.326;2024-01-27T08:11:44;1.60;99.90
7844;DHT22;3967;48.702;9.326;2024-01-27T08:14:11;1.50;99.90
7844;DHT22;3967;48.702;9.326;2024-01-27T08:16:38;1.50;99.90
7844;DHT22;3967;48.702;9.326;2024-01-27T08:19:05;1.50;99.90
7844;DHT22;3967;48.702;9.326;2024-01-27T08:21:32;1.30;99.90
7844;DHT22;3967;48.702;9.326;2024-01-27T08:23:59;1.10;99.90
7844;DHT22;3967;48.702;9.326;2024-01-27T08:26:26;1.30;99.90
7844;DHT22;3967;48.702;9.326;2024-01-27T08:28:52;1.60;99.90
7844;DHT22;3967;48.702;9.326;2024-01-27T08:31:21;1.80;99.90
7844;DHT22;3967;48.702;9.326;2024-01-27T08:33:47;2.00;99.90
7844;DHT22;3967;48.702;9.326;2024-01-27T08:36:15;2.10;99.90
7844;DHT22;3967;48.702;9.326;2024-01-27T08:38:42;2.10;99.90
7844;DHT22;3967;48.702;9.326;2024-01-27T08:41:10;2.20;99.90
7844;DHT22;3967;48.702;9.326;2024-01-27T08:43:36;2.20;99.90
7844;DHT22;3967;48.702;9.326;2024-01-27T08:46:03;2.20;99.90
7844;DHT22;3967;48.702;9.326;2024-01-27T08:48:30;2.10;99.90
7844;DHT22;3967;48.702;9.326;2024-01-27T08:50:57;2.30;99.90
7844;DHT22;3967;48.702;9.326;2024-01-27T08:53:24;2.50;99.90
7844;DHT22;3967;48.702;9.326;2024-01-27T08:55:51;2.80;99.90
7844;DHT22;3967;48.702;9.326;2024-01-27T08:58:18;3.30;99.90
7844;DHT22;3967;48.702;9.326;2024-01-27T09:00:44;3.20;99.90
7844;DHT22;3967;48.702;9.326;2024-01-27T09:03:11;3.10;99.90
7844;DHT22;3967;48.702;9.326;2024-01-27T09:05:40;3.10;99.90
7844;DHT22;3967;48.702;9.326;2024-01-27T09:08:10;3.10;99.90
7844;DHT22;3967;48.702;9.326;2024-01-27T09:10:37;3.10;99.90
7844;DHT22;3967;48.702;9.326;2024-01-27T09:13:04;3.10;99.90
7844;DHT22;3967;48.702;9.326;2024-01-27T09:15:34;3.20;99.90
7844;DHT22;3967;48.702;9.326;2024-01-27T09:18:01;3.20;99.90
7844;DHT22;3967;48.702;9.326;2024-01-27T09:20:30;3.30;99.90
7844;DHT22;3967;48.702;9.326;2024-01-27T09:22:58;3.40;99.90
7844;DHT22;3967;48.702;9.326;2024-01-27T09:25:24;3.60;99.90
7844;DHT22;3967;48.702;9.326;2024-01-27T09:27:53;3.80;99.90
7844;DHT22;3967;48.702;9.326;2024-01-27T09:30:20;4.00;99.90
7844;DHT22;3967;48.702;9.326;2024-01-27T09:32:47;4.20;99.90
7844;DHT22;3967;48.702;9.326;2024-01-27T09:35:14;4.10;99.90
7844;DHT22;3967;48.702;9.326;2024-01-27T09:37:41;4.20;99.90
7844;DHT22;3967;48.702;9.326;2024-01-27T09:40:10;4.10;99.90
7844;DHT22;3967;48.702;9.326;2024-01-27T09:42:38;4.10;99.90
7844;DHT22;3967;48.702;9.326;2024-01-27T09:45:09;4.20;99.90
7844;DHT22;3967;48.702;9.326;2024-01-27T09:47:37;4.30;99.90
7844;DHT22;3967;48.702;9.326;2024-01-27T09:50:05;4.20;99.90
7844;DHT22;3967;48.702;9.326;2024-01-27T09:52:34;4.30;99.90
7844;DHT22;3967;48.702;9.326;2024-01-27T09:55:01;4.60;99.90
7844;DHT22;3967;48.702;9.326;2024-01-27T09:57:28;4.80;99.90
7844;DHT22;3967;48.702;9.326;2024-01-27T09:59:57;4.60;99.90
7844;DHT22;3967;48.702;9.326;2024-01-27T10:02:25;4.80;99.90
7844;DHT22;3967;48.702;9.326;2024-01-27T10:04:57;4.90;99.90
7844;DHT22;3967;48.702;9.326;2024-01-27T10:07:24;5.10;99.90
7844;DHT22;3967;48.702;9.326;2024-01-27T10:09:51;5.20;99.90
7844;DHT22;3967;48.702;9.326;2024-01-27T10:12:21;5.10;99.40
7844;DHT22;3967;48.702;9.326;2024-01-27T10:14:49;5.20;99.40
7844;DHT22;3967;48.702;9.326;2024-01-27T10:17:21;5.00;98.40
7844;DHT22;3967;48.702;9.326;2024-01-27T10:20:02;5.20;99.20
7844;DHT22;3967;48.702;9.326;2024-01-27T10:22:38;5.30;99.10
7844;DHT22;3967;48.702;9.326;2024-01-27T10:25:06;5.40;98.60
7844;DHT22;3967;48.702;9.326;2024-01-27T10:27:34;5.40;98.50
7844;DHT22;3967;48.702;9.326;2024-01-27T10:30:03;5.40;98.20
7844;DHT22;3967;48.702;9.326;2024-01-27T10:32:30;5.30;98.50
7844;DHT22;3967;48.702;9.326;2024-01-27T10:35:07;5.10;98.70
7844;DHT22;3967;48.702;9.326;2024-01-27T10:37:37;5.40;99.90
7844;DHT22;3967;48.702;9.326;2024-01-27T10:40:06;5.70;99.90
7844;DHT22;3967;48.702;9.326;2024-01-27T10:42:37;5.60;99.80
7844;DHT22;3967;48.702;9.326;2024-01-27T10:45:05;5.50;98.50
7844;DHT22;3967;48.702;9.326;2024-01-27T10:47:32;5.40;98.70
7844;DHT22;3967;48.702;9.326;2024-01-27T10:50:00;5.30;98.30
7844;DHT22;3967;48.702;9.326;2024-01-27T10:52:30;5.30;98.50
7844;DHT22;3967;48.702;9.326;2024-01-27T10:55:02;5.20;98.50
7844;DHT22;3967;48.702;9.326;2024-01-27T10:57:30;5.20;98.80
7844;DHT22;3967;48.702;9.326;2024-01-27T10:59:58;5.40;99.20
7844;DHT22;3967;48.702;9.326;2024-01-27T11:02:28;5.40;99.30
7844;DHT22;3967;48.702;9.326;2024-01-27T11:05:02;5.30;99.20
7844;DHT22;3967;48.702;9.326;2024-01-27T11:07:34;5.30;99.00
7844;DHT22;3967;48.702;9.326;2024-01-27T11:10:01;5.20;98.60
7844;DHT22;3967;48.702;9.326;2024-01-27T11:12:29;5.30;98.60
7844;DHT22;3967;48.702;9.326;2024-01-27T11:14:57;5.40;98.20
7844;DHT22;3967;48.702;9.326;2024-01-27T11:17:26;5.30;98.10
7844;DHT22;3967;48.702;9.326;2024-01-27T11:19:56;5.40;97.90
7844;DHT22;3967;48.702;9.326;2024-01-27T11:22:29;5.50;97.50
7844;DHT22;3967;48.702;9.326;2024-01-27T11:27:37;5.40;98.10
7844;DHT22;3967;48.702;9.326;2024-01-27T11:30:04;5.50;98.40
7844;DHT22;3967;48.702;9.326;2024-01-27T11:32:31;5.50;98.10
7844;DHT22;3967;48.702;9.326;2024-01-27T11:35:01;5.60;98.30
7844;DHT22;3967;48.702;9.326;2024-01-27T11:37:31;5.60;98.80
7844;DHT22;3967;48.702;9.326;2024-01-27T11:40:04;5.60;98.60
7844;DHT22;3967;48.702;9.326;2024-01-27T11:42:34;5.60;98.10
7844;DHT22;3967;48.702;9.326;2024-01-27T11:45:01;5.70;98.10
7844;DHT22;3967;48.702;9.326;2024-01-27T11:47:28;5.70;97.60
7844;DHT22;3967;48.702;9.326;2024-01-27T11:49:56;5.60;97.50
7844;DHT22;3967;48.702;9.326;2024-01-27T11:52:25;5.80;97.40
7844;DHT22;3967;48.702;9.326;2024-01-27T11:54:59;5.70;96.60
7844;DHT22;3967;48.702;9.326;2024-01-27T11:57:26;5.90;96.50
7844;DHT22;3967;48.702;9.326;2024-01-27T11:59:55;5.90;95.60
7844;DHT22;3967;48.702;9.326;2024-01-27T12:02:22;6.00;96.10
7844;DHT22;3967;48.702;9.326;2024-01-27T12:04:49;5.90;94.90
7844;DHT22;3967;48.702;9.326;2024-01-27T12:07:16;6.10;95.40
7844;DHT22;3967;48.702;9.326;2024-01-27T12:09:49;6.20;95.10
7844;DHT22;3967;48.702;9.326;2024-01-27T12:12:16;6.20;94.70
7844;DHT22;3967;48.702;9.326;2024-01-27T12:17:14;6.30;94.80
7844;DHT22;3967;48.702;9.326;2024-01-27T12:19:50;6.30;94.20
7844;DHT22;3967;48.702;9.326;2024-01-27T12:22:25;6.40;93.50
7844;DHT22;3967;48.702;9.326;2024-01-27T12:25:11;6.50;93.20
7844;DHT22;3967;48.702;9.326;2024-01-27T12:27:39;6.30;93.30
7844;DHT22;3967;48.702;9.326;2024-01-27T12:30:07;6.30;93.30
7844;DHT22;3967;48.702;9.326;2024-01-27T12:32:34;6.40;93.30
7844;DHT22;3967;48.702;9.326;2024-01-27T12:35:08;6.40;92.20
7844;DHT22;3967;48.702;9.326;2024-01-27T12:37:36;6.50;91.50
7844;DHT22;3967;48.702;9.326;2024-01-27T12:40:20;6.60;91.60
7844;DHT22;3967;48.702;9.326;2024-01-27T12:42:50;6.40;91.20
7844;DHT22;3967;48.702;9.326;2024-01-27T12:45:17;6.40;91.10
7844;DHT22;3967;48.702;9.326;2024-01-27T12:47:45;6.60;91.10
7844;DHT22;3967;48.702;9.326;2024-01-27T12:50:12;6.70;90.60
7844;DHT22;3967;48.702;9.326;2024-01-27T12:52:40;6.70;91.10
7844;DHT22;3967;48.702;9.326;2024-01-27T12:55:07;6.80;90.90
7844;DHT22;3967;48.702;9.326;2024-01-27T12:57:34;6.70;90.90
7844;DHT22;3967;48.702;9.326;2024-01-27T13:00:02;6.70;90.80
7844;DHT22;3967;48.702;9.326;2024-01-27T13:02:34;6.80;90.80
7844;DHT22;3967;48.702;9.326;2024-01-27T13:05:01;6.80;90.20
7844;DHT22;3967;48.702;9.326;2024-01-27T13:07:28;7.00;90.40
7844;DHT22;3967;48.702;9.326;2024-01-27T13:09:55;7.10;88.30
7844;DHT22;3967;48.702;9.326;2024-01-27T13:12:22;7.10;87.50
7844;DHT22;3967;48.702;9.326;2024-01-27T13:14:49;7.00;89.90
7844;DHT22;3967;48.702;9.326;2024-01-27T13:17:15;7.00;90.90
7844;DHT22;3967;48.702;9.326;2024-01-27T13:19:42;7.00;90.70
7844;DHT22;3967;48.702;9.326;2024-01-27T13:22:09;7.10;90.60
7844;DHT22;3967;48.702;9.326;2024-01-27T13:24:38;7.00;90.80
7844;DHT22;3967;48.702;9.326;2024-01-27T13:27:05;7.10;91.20
7844;DHT22;3967;48.702;9.326;2024-01-27T13:29:34;7.30;91.10
7844;DHT22;3967;48.702;9.326;2024-01-27T13:32:01;7.30;90.70
7844;DHT22;3967;48.702;9.326;2024-01-27T13:34:29;7.20;89.00
7844;DHT22;3967;48.702;9.326;2024-01-27T13:36:57;7.20;88.30
7844;DHT22;3967;48.702;9.326;2024-01-27T13:39:25;7.20;87.30
7844;DHT22;3967;48.702;9.326;2024-01-27T13:41:52;7.30;87.10
7844;DHT22;3967;48.702;9.326;2024-01-27T13:44:18;7.30;86.00
7844;DHT22;3967;48.702;9.326;2024-01-27T13:46:45;7.40;85.00
7844;DHT22;3967;48.702;9.326;2024-01-27T13:49:12;7.40;82.70
7844;DHT22;3967;48.702;9.326;2024-01-27T13:51:39;7.40;83.40
7844;DHT22;3967;48.702;9.326;2024-01-27T13:54:06;7.50;83.30
7844;DHT22;3967;48.702;9.326;2024-01-27T13:56:35;7.50;83.50
7844;DHT22;3967;48.702;9.326;2024-01-27T13:59:03;7.60;82.10
7844;DHT22;3967;48.702;9.326;2024-01-27T14:01:40;7.60;80.60
7844;DHT22;3967;48.702;9.326;2024-01-27T14:04:06;7.60;79.70
7844;DHT22;3967;48.702;9.326;2024-01-27T14:06:35;7.60;78.80
7844;DHT22;3967;48.702;9.326;2024-01-27T14:09:02;7.60;77.60
7844;DHT22;3967;48.702;9.326;2024-01-27T14:11:29;7.60;77.10
7844;DHT22;3967;48.702;9.326;2024-01-27T14:13:56;7.60;76.50
7844;DHT22;3967;48.702;9.326;2024-01-27T14:16:23;7.70;77.10
7844;DHT22;3967;48.702;9.326;2024-01-27T14:18:51;7.80;76.50
7844;DHT22;3967;48.702;9.326;2024-01-27T14:21:17;7.70;75.40
7844;DHT22;3967;48.702;9.326;2024-01-27T14:23:44;7.70;75.60
7844;DHT22;3967;48.702;9.326;2024-01-27T14:26:11;7.70;76.00
7844;DHT22;3967;48.702;9.326;2024-01-27T14:28:42;7.80;76.10
7844;DHT22;3967;48.702;9.326;2024-01-27T14:31:09;8.00;77.30
7844;DHT22;3967;48.702;9.326;2024-01-27T14:33:39;8.00;77.20
7844;DHT22;3967;48.702;9.326;2024-01-27T14:36:06;8.10;76.50
7844;DHT22;3967;48.702;9.326;2024-01-27T14:38:33;8.00;77.00
7844;DHT22;3967;48.702;9.326;2024-01-27T14:41:00;7.90;77.30
7844;DHT22;3967;48.702;9.326;2024-01-27T14:43:27;7.90;78.00
7844;DHT22;3967;48.702;9.326;2024-01-27T14:45:54;7.90;78.60
7844;DHT22;3967;48.702;9.326;2024-01-27T14:48:22;7.90;79.50
7844;DHT22;3967;48.702;9.326;2024-01-27T14:50:49;7.90;80.10
7844;DHT22;3967;48.702;9.326;2024-01-27T14:53:21;7.90;79.60
7844;DHT22;3967;48.702;9.326;2024-01-27T14:55:48;8.00;80.40
7844;DHT22;3967;48.702;9.326;2024-01-27T14:58:15;8.00;80.90
7844;DHT22;3967;48.702;9.326;2024-01-27T15:00:42;8.00;80.90
7844;DHT22;3967;48.702;9.326;2024-01-27T15:03:09;8.00;80.70
7844;DHT22;3967;48.702;9.326;2024-01-27T15:05:36;8.10;80.80
7844;DHT22;3967;48.702;9.326;2024-01-27T15:08:07;8.00;80.50
7844;DHT22;3967;48.702;9.326;2024-01-27T15:10:33;7.90;80.50
7844;DHT22;3967;48.702;9.326;2024-01-27T15:13:00;7.90;80.70
7844;DHT22;3967;48.702;9.326;2024-01-27T15:15:27;7.90;81.10
7844;DHT22;3967;48.702;9.326;2024-01-27T15:17:54;7.90;81.60
7844;DHT22;3967;48.702;9.326;2024-01-27T15:20:27;7.90;81.30
7844;DHT22;3967;48.702;9.326;2024-01-27T15:22:54;7.90;81.70
7844;DHT22;3967;48.702;9.326;2024-01-27T15:25:21;8.00;81.60
7844;DHT22;3967;48.702;9.326;2024-01-27T15:27:48;8.00;81.10
7844;DHT22;3967;48.702;9.326;2024-01-27T15:30:18;7.90;79.90
7844;DHT22;3967;48.702;9.326;2024-01-27T15:32:46;7.90;78.30
7844;DHT22;3967;48.702;9.326;2024-01-27T15:35:13;8.00;79.10
7844;DHT22;3967;48.702;9.326;2024-01-27T15:37:40;8.00;78.90
7844;DHT22;3967;48.702;9.326;2024-01-27T15:40:07;8.00;77.10
7844;DHT22;3967;48.702;9.326;2024-01-27T15:42:36;7.80;76.30
7844;DHT22;3967;48.702;9.326;2024-01-27T15:45:04;7.70;75.30
7844;DHT22;3967;48.702;9.326;2024-01-27T15:47:31;7.80;75.80
7844;DHT22;3967;48.702;9.326;2024-01-27T15:49:58;7.80;75.90
7844;DHT22;3967;48.702;9.326;2024-01-27T15:52:31;7.80;75.40
7844;DHT22;3967;48.702;9.326;2024-01-27T15:54:58;7.80;75.40
7844;DHT22;3967;48.702;9.326;2024-01-27T15:57:25;7.70;75.70
7844;DHT22;3967;48.702;9.326;2024-01-27T15:59:54;7.70;76.00
7844;DHT22;3967;48.702;9.326;2024-01-27T16:02:22;7.70;75.80
7844;DHT22;3967;48.702;9.326;2024-01-27T16:04:49;7.70;76.50
7844;DHT22;3967;48.702;9.326;2024-01-27T16:07:16;7.60;76.90
7844;DHT22;3967;48.702;9.326;2024-01-27T16:09:46;7.50;77.50
7844;DHT22;3967;48.702;9.326;2024-01-27T16:12:13;7.40;78.00
7844;DHT22;3967;48.702;9.326;2024-01-27T16:14:40;7.40;79.10
7844;DHT22;3967;48.702;9.326;2024-01-27T16:17:07;7.40;79.60
7844;DHT22;3967;48.702;9.326;2024-01-27T16:19:34;7.30;79.90
7844;DHT22;3967;48.702;9.326;2024-01-27T16:22:01;7.10;80.80
7844;DHT22;3967;48.702;9.326;2024-01-27T16:24:27;7.10;81.90